Terminal Aerodrome Forecast
Issued by NWS

Home | Current Version | Previous Version | Text Only | Print | Product List | Glossary On
Versions: 1 2 3 4 5 6 7 8 9 10 11 12 13 14 15 16 17
000
FTUS43 KICT 242300
TAFCNU
TAF
KCNU 242320Z 2500/2524 19006KT P6SM FEW250
     FM250900 VRB03KT 3SM BR SKC
      TEMPO 2510/2514 1/2SM FG
     FM251600 08008KT P6SM SKC=

USA.gov is the U.S. government's official web portal to all federal, state and local government web resources and services.